Time;durP1;ratioP1;P1;durP2;ratioP2;P2;SDS_P1;SDS_P2;PMS_P1;PMS_P2;Temp;Humidity;BMP_temperature;BMP_pressure;BME280_temperature;BME280_humidity;BME280_pressure;Samples;Min_cycle;Max_cycle;Signal;HPM_P1;HPM_P2
2023/08/10 00:01:03;;;;;;;4.10;1.70;;;;;;;9.60;100.00;98698.84;2591915;28;20038;-88
2023/08/10 00:02:23;;;;;;;2.42;1.83;;;;;;;9.80;100.00;98701.06;2590978;28;20391;-87
2023/08/10 00:03:40;;;;;;;2.15;1.63;;;;;;;9.64;100.00;98703.16;2591407;28;20049;-88
2023/08/10 00:04:56;;;;;;;2.80;1.60;;;;;;;9.83;100.00;98697.53;2591896;28;20046;-87
2023/08/10 00:06:12;;;;;;;3.50;1.98;;;;;;;9.85;100.00;98699.22;2591999;28;20046;-88
2023/08/10 00:07:27;;;;;;;1.85;1.60;;;;;;;9.83;100.00;98700.16;2591969;28;20065;-88
2023/08/10 00:08:42;;;;;;;2.00;1.80;;;;;;;9.71;100.00;98704.72;2591859;28;20034;-88
2023/08/10 00:09:58;;;;;;;2.42;1.75;;;;;;;9.80;100.00;98705.44;2591886;28;20556;-88
2023/08/10 00:11:14;;;;;;;2.55;1.90;;;;;;;9.61;100.00;98701.44;2591882;28;20046;-88
2023/08/10 00:12:29;;;;;;;3.45;1.80;;;;;;;9.56;100.00;98703.25;2591646;28;20046;-88
2023/08/10 00:13:45;;;;;;;4.53;2.00;;;;;;;9.59;100.00;98699.75;2591716;28;20041;-88
2023/08/10 00:15:01;;;;;;;5.35;2.00;;;;;;;9.45;100.00;98700.88;2591976;28;20049;-88
2023/08/10 00:16:16;;;;;;;3.60;1.80;;;;;;;9.47;100.00;98698.25;2591866;28;20050;-88
2023/08/10 00:17:32;;;;;;;3.65;1.98;;;;;;;9.50;100.00;98698.16;2591666;28;20073;-88
2023/08/10 00:18:47;;;;;;;2.13;1.80;;;;;;;9.66;100.00;98695.25;2580854;28;20124;-88
2023/08/10 00:20:07;;;;;;;4.47;1.75;;;;;;;9.62;100.00;98691.81;2585294;28;20064;-88
2023/08/10 00:21:22;;;;;;;1.92;1.70;;;;;;;9.66;100.00;98696.13;2591687;28;20069;-88
2023/08/10 00:22:38;;;;;;;2.33;1.70;;;;;;;9.71;100.00;98686.44;2591805;28;20056;-88
2023/08/10 00:23:56;;;;;;;2.83;1.70;;;;;;;9.73;100.00;98686.41;2592900;28;20069;-88
2023/08/10 00:25:12;;;;;;;1.90;1.70;;;;;;;9.77;100.00;98689.78;2583219;28;20069;-87
2023/08/10 00:26:28;;;;;;;2.55;1.88;;;;;;;9.80;100.00;98689.75;2587318;28;20053;-88
2023/08/10 00:27:44;;;;;;;3.72;1.60;;;;;;;9.79;100.00;98698.50;2582672;28;20047;-88
2023/08/10 00:28:59;;;;;;;2.20;1.98;;;;;;;9.72;100.00;98702.97;2587018;28;20046;-88
2023/08/10 00:30:15;;;;;;;2.00;1.70;;;;;;;9.71;100.00;98698.66;2593709;28;20104;-88
2023/08/10 00:31:30;;;;;;;2.72;1.70;;;;;;;9.78;100.00;98707.19;2593749;28;20045;-88
2023/08/10 00:32:46;;;;;;;2.00;1.80;;;;;;;9.71;100.00;98701.25;2593564;28;20559;-88
2023/08/10 00:34:01;;;;;;;3.25;1.52;;;;;;;9.66;100.00;98698.75;2593520;28;20049;-88
2023/08/10 00:35:18;;;;;;;2.40;1.75;;;;;;;9.66;100.00;98700.47;2582706;28;20498;-88
2023/08/10 00:36:35;;;;;;;3.67;1.75;;;;;;;9.71;100.00;98709.94;2587072;28;20481;-88
2023/08/10 00:37:51;;;;;;;2.15;1.70;;;;;;;9.70;100.00;98705.63;2593456;28;20221;-88
2023/08/10 00:39:07;;;;;;;4.90;1.70;;;;;;;9.70;100.00;98710.84;2593558;28;20067;-88
2023/08/10 00:40:23;;;;;;;3.22;1.67;;;;;;;9.71;100.00;98699.50;2593488;28;20061;-88
2023/08/10 00:41:38;;;;;;;3.45;1.80;;;;;;;9.69;100.00;98700.41;2593802;28;20049;-87
2023/08/10 00:42:54;;;;;;;7.43;1.60;;;;;;;9.73;100.00;98697.72;2593743;28;20046;-88
2023/08/10 00:44:09;;;;;;;4.53;1.70;;;;;;;9.60;100.00;98707.56;2593701;28;20042;-89
2023/08/10 00:45:25;;;;;;;1.90;1.70;;;;;;;9.44;100.00;98701.75;2593853;28;20092;-87
2023/08/10 00:46:41;;;;;;;2.15;1.60;;;;;;;9.42;100.00;98703.53;2593810;28;20049;-87
2023/08/10 00:47:57;;;;;;;3.45;1.80;;;;;;;9.48;100.00;98713.03;2582952;28;20046;-87
2023/08/10 00:49:13;;;;;;;2.53;1.92;;;;;;;9.46;100.00;98707.81;2587174;28;20520;-86
2023/08/10 00:50:29;;;;;;;3.75;2.20;;;;;;;9.54;100.00;98707.66;2593717;28;20070;-87
2023/08/10 00:51:45;;;;;;;2.40;1.80;;;;;;;9.43;100.00;98705.28;2582865;28;20054;-87
2023/08/10 00:53:01;;;;;;;2.20;1.60;;;;;;;9.30;100.00;98703.78;2587224;28;20050;-89
2023/08/10 00:54:17;;;;;;;3.10;1.60;;;;;;;9.44;100.00;98709.59;2582636;28;20058;-89
2023/08/10 00:55:33;;;;;;;1.98;1.60;;;;;;;9.42;100.00;98703.53;2586892;28;20041;-87
2023/08/10 00:56:50;;;;;;;3.70;2.33;;;;;;;9.35;100.00;98708.91;2593333;28;20052;-89
2023/08/10 00:58:06;;;;;;;1.63;1.52;;;;;;;9.25;100.00;98711.69;2593359;28;20073;-89
2023/08/10 00:59:22;;;;;;;2.80;1.88;;;;;;;9.35;100.00;98704.53;2593333;28;20053;-89
2023/08/10 01:00:38;;;;;;;2.17;1.83;;;;;;;9.28;100.00;98706.41;2593464;28;20057;-90
2023/08/10 01:01:53;;;;;;;1.73;1.52;;;;;;;9.37;100.00;98705.41;2593262;28;20069;-89
2023/08/10 01:03:09;;;;;;;2.85;1.88;;;;;;;9.35;100.00;98703.69;2582546;28;20071;-89
2023/08/10 01:04:25;;;;;;;2.72;1.90;;;;;;;9.22;100.00;98705.66;2586761;28;20653;-89
2023/08/10 01:06:12;;;;;;;3.42;1.85;;;;;;;9.10;100.00;98701.53;2593361;28;20486;-89
2023/08/10 01:07:43;;;;;;;2.85;1.90;;;;;;;9.04;100.00;98705.09;2588803;28;20085;-89
2023/08/10 01:09:11;;;;;;;7.75;2.20;;;;;;;9.06;100.00;98694.63;2593253;28;20100;-89
2023/08/10 01:10:26;;;;;;;2.38;1.83;;;;;;;9.11;100.00;98700.63;2593426;28;20046;-87
2023/08/10 01:12:07;;;;;;;1.90;1.70;;;;;;;8.98;100.00;98703.47;2593164;28;20102;-88
2023/08/10 01:13:28;;;;;;;2.97;2.00;;;;;;;8.96;100.00;98696.56;2593422;28;20107;-87
2023/08/10 01:15:08;;;;;;;3.60;2.10;;;;;;;9.08;100.00;98693.72;2593100;28;20053;-87
2023/08/10 01:16:27;;;;;;;2.60;2.17;;;;;;;9.10;100.00;98705.00;2593438;28;20045;-90
2023/08/10 01:17:50;;;;;;;2.05;1.77;;;;;;;8.88;100.00;98702.75;2593263;28;20053;-87
2023/08/10 01:19:14;;;;;;;4.00;2.13;;;;;;;8.99;100.00;98701.72;2593301;28;20100;-87
2023/08/10 01:20:31;;;;;;;3.80;1.90;;;;;;;9.13;100.00;98702.34;2593273;28;20046;-87
2023/08/10 01:21:59;;;;;;;3.95;1.98;;;;;;;9.17;100.00;98708.38;2593333;28;20100;-89
2023/08/10 01:23:31;;;;;;;4.03;1.85;;;;;;;9.08;100.00;98698.97;2593222;28;20056;-87
2023/08/10 01:25:06;;;;;;;2.80;2.20;;;;;;;8.99;100.00;98712.16;2593289;28;20050;-89
2023/08/10 01:26:26;;;;;;;4.00;1.98;;;;;;;8.71;100.00;98713.47;2582347;28;20042;-89
2023/08/10 01:27:43;;;;;;;3.63;2.17;;;;;;;8.69;100.00;98711.78;2587186;28;20053;-89
2023/08/10 01:28:59;;;;;;;3.15;1.92;;;;;;;8.68;100.00;98710.06;2593080;28;20045;-89
2023/08/10 01:30:15;;;;;;;2.70;1.92;;;;;;;8.80;100.00;98712.50;2593377;28;20045;-89
2023/08/10 01:31:30;;;;;;;4.60;2.78;;;;;;;8.74;100.00;98705.63;2593278;28;20096;-88
2023/08/10 01:32:46;;;;;;;2.17;1.80;;;;;;;8.79;100.00;98712.50;2593124;28;20046;-88
2023/08/10 01:34:02;;;;;;;2.72;2.13;;;;;;;8.72;100.00;98711.72;2593127;28;20421;-88
2023/08/10 01:35:18;;;;;;;5.80;2.40;;;;;;;8.75;100.00;98715.16;2593235;28;20053;-88
2023/08/10 01:36:34;;;;;;;4.45;2.30;;;;;;;8.80;100.00;98712.50;2593250;28;20056;-88
2023/08/10 01:37:49;;;;;;;6.38;2.10;;;;;;;8.84;100.00;98723.72;2592817;28;20096;-88
2023/08/10 01:39:05;;;;;;;3.63;2.10;;;;;;;8.75;100.00;98717.78;2592879;28;20042;-88
2023/08/10 01:40:21;;;;;;;3.17;2.17;;;;;;;8.74;100.00;98718.66;2593205;28;20046;-88
2023/08/10 01:41:36;;;;;;;5.28;2.20;;;;;;;8.76;100.00;98721.22;2592944;28;20405;-88
2023/08/10 01:42:52;;;;;;;2.40;1.98;;;;;;;8.77;100.00;98720.34;2593125;28;20057;-88
2023/08/10 01:44:07;;;;;;;4.55;2.35;;;;;;;8.74;100.00;98721.28;2593074;28;20049;-88
2023/08/10 01:45:24;;;;;;;3.60;2.20;;;;;;;8.88;100.00;98721.03;2593048;28;20046;-87
2023/08/10 01:46:42;;;;;;;2.97;2.33;;;;;;;8.84;100.00;98719.38;2582306;28;20109;-88
2023/08/10 01:48:08;;;;;;;3.47;2.10;;;;;;;8.96;100.00;98720.06;2586951;28;20096;-88
2023/08/10 01:49:25;;;;;;;2.80;2.20;;;;;;;9.16;100.00;98717.94;2593004;28;20046;-88
2023/08/10 01:50:45;;;;;;;4.97;2.30;;;;;;;9.37;100.00;98721.06;2592237;28;20041;-88
2023/08/10 01:52:07;;;;;;;4.30;2.35;;;;;;;9.36;100.00;98724.59;2592657;28;20049;-88
2023/08/10 01:53:35;;;;;;;2.67;2.33;;;;;;;9.30;100.00;98722.94;2593016;28;20134;-88
2023/08/10 01:54:52;;;;;;;4.30;2.60;;;;;;;9.39;100.00;98724.53;2592961;28;20092;-88
2023/08/10 01:56:07;;;;;;;3.53;2.33;;;;;;;9.38;100.00;98724.53;2592946;28;20042;-88
2023/08/10 01:57:23;;;;;;;4.03;2.30;;;;;;;9.39;100.00;98731.47;2592829;28;20065;-88
2023/08/10 01:58:39;;;;;;;5.80;2.40;;;;;;;9.33;100.00;98730.72;2592896;28;20038;-88
2023/08/10 01:59:55;;;;;;;7.88;2.60;;;;;;;9.25;100.00;98736.97;2592835;28;20405;-88
2023/08/10 02:01:11;;;;;;;4.63;2.30;;;;;;;9.08;100.00;98730.31;2593202;28;20049;-88
2023/08/10 02:02:26;;;;;;;4.53;2.30;;;;;;;8.85;100.00;98728.94;2591908;28;20711;-88
2023/08/10 02:03:42;;;;;;;2.80;2.15;;;;;;;8.92;100.00;98732.31;2592578;28;20110;-88
2023/08/10 02:04:58;;;;;;;2.40;1.98;;;;;;;8.86;100.00;98737.59;2593083;28;20516;-88
2023/08/10 02:06:14;;;;;;;4.15;2.40;;;;;;;9.03;100.00;98742.56;2592607;28;20045;-88
2023/08/10 02:07:29;;;;;;;3.55;2.40;;;;;;;9.17;100.00;98748.41;2592757;28;20042;-88
2023/08/10 02:08:45;;;;;;;3.22;2.67;;;;;;;9.19;100.00;98746.63;2592837;28;20046;-88
2023/08/10 02:10:01;;;;;;;5.13;2.95;;;;;;;9.28;100.00;98749.97;2592686;28;20470;-88
2023/08/10 02:11:18;;;;;;;5.10;2.65;;;;;;;9.19;100.00;98741.41;2592718;28;20042;-88
2023/08/10 02:12:33;;;;;;;3.40;2.58;;;;;;;9.31;100.00;98744.69;2581801;28;20070;-89
2023/08/10 02:13:49;;;;;;;4.10;2.30;;;;;;;9.30;100.00;98745.56;2575567;28;20449;-88
2023/08/10 02:15:07;;;;;;;3.38;2.42;;;;;;;9.36;100.00;98742.00;2576211;28;20052;-88
2023/08/10 02:16:23;;;;;;;3.85;2.47;;;;;;;9.36;100.00;98742.88;2576238;28;20557;-88
2023/08/10 02:17:40;;;;;;;3.10;2.58;;;;;;;9.52;100.00;98742.59;2586121;28;20095;-88
2023/08/10 02:18:56;;;;;;;4.20;2.60;;;;;;;9.54;100.00;98743.41;2592803;28;20418;-88
2023/08/10 02:20:12;;;;;;;2.92;2.22;;;;;;;9.51;100.00;98746.94;2592934;28;20045;-87
2023/08/10 02:21:27;;;;;;;2.83;2.42;;;;;;;9.54;100.00;98746.88;2592707;28;20472;-88
2023/08/10 02:22:51;;;;;;;4.88;2.47;;;;;;;9.54;100.00;98743.41;2592777;28;20517;-88
2023/08/10 02:24:06;;;;;;;3.30;2.42;;;;;;;9.46;100.00;98741.78;2592660;28;20064;-88
2023/08/10 02:25:22;;;;;;;4.18;2.60;;;;;;;9.41;100.00;98740.16;2592814;28;20053;-88
2023/08/10 02:26:38;;;;;;;5.38;2.72;;;;;;;9.21;100.00;98744.00;2581722;28;20054;-88
2023/08/10 02:27:53;;;;;;;3.53;2.30;;;;;;;9.34;100.00;98742.00;2586014;28;20508;-88
2023/08/10 02:29:09;;;;;;;4.78;2.40;;;;;;;9.44;100.00;98737.50;2592523;28;20505;-88
2023/08/10 02:30:25;;;;;;;2.60;2.20;;;;;;;9.44;100.00;98735.72;2592617;28;20048;-88
2023/08/10 02:31:40;;;;;;;4.05;2.08;;;;;;;9.32;100.00;98734.22;2592759;28;20050;-88
2023/08/10 02:32:56;;;;;;;2.33;2.05;;;;;;;9.43;100.00;98738.41;2592440;28;20046;-88
2023/08/10 02:34:11;;;;;;;3.67;2.50;;;;;;;9.47;100.00;98743.50;2592572;28;20078;-88
2023/08/10 02:35:27;;;;;;;4.90;2.50;;;;;;;9.72;100.00;98745.66;2592610;28;20042;-88
2023/08/10 02:36:43;;;;;;;2.83;2.25;;;;;;;9.71;100.00;98745.72;2592376;28;20045;-89
2023/08/10 02:37:58;;;;;;;2.75;2.15;;;;;;;9.58;100.00;98752.91;2581492;28;20069;-88
2023/08/10 02:39:14;;;;;;;4.50;2.33;;;;;;;9.45;100.00;98753.13;2581725;28;20057;-88
2023/08/10 02:40:30;;;;;;;5.50;2.38;;;;;;;9.50;100.00;98746.94;2586004;28;20079;-89
2023/08/10 02:41:46;;;;;;;3.65;2.30;;;;;;;9.59;100.00;98750.28;2592411;28;20045;-88
2023/08/10 02:43:01;;;;;;;5.03;2.30;;;;;;;9.82;100.00;98748.09;2592393;28;20422;-88
2023/08/10 02:44:19;;;;;;;3.80;2.60;;;;;;;9.88;100.00;98737.50;2592439;28;20391;-88
2023/08/10 02:45:34;;;;;;;5.38;2.80;;;;;;;9.90;100.00;98743.56;2592502;28;20437;-88
2023/08/10 02:46:50;;;;;;;3.60;2.10;;;;;;;9.71;100.00;98750.94;2592164;28;20041;-88
2023/08/10 02:48:06;;;;;;;3.10;2.47;;;;;;;9.80;100.00;98747.28;2581474;28;20034;-88
2023/08/10 02:49:22;;;;;;;3.63;2.40;;;;;;;9.84;100.00;98748.94;2585879;28;20050;-88
2023/08/10 02:50:37;;;;;;;2.80;2.13;;;;;;;9.89;100.00;98752.31;2592409;28;20057;-88
2023/08/10 02:51:52;;;;;;;4.63;2.33;;;;;;;9.98;100.00;98752.13;2592429;28;20041;-88
2023/08/10 02:53:08;;;;;;;2.85;2.10;;;;;;;10.06;100.00;98745.84;2592232;28;20046;-89
2023/08/10 02:54:24;;;;;;;4.05;2.40;;;;;;;10.10;100.00;98745.78;2592279;28;20072;-88
2023/08/10 02:55:39;;;;;;;4.90;2.53;;;;;;;10.05;100.00;98745.00;2592421;28;20054;-89
2023/08/10 02:56:55;;;;;;;2.30;1.98;;;;;;;9.89;100.00;98754.91;2592479;28;20046;-88
2023/08/10 02:58:10;;;;;;;6.07;2.03;;;;;;;9.74;100.00;98746.50;2592214;28;20042;-88
2023/08/10 02:59:26;;;;;;;3.20;2.22;;;;;;;9.70;100.00;98742.22;2592307;28;20034;-89
2023/08/10 03:00:42;;;;;;;3.22;2.10;;;;;;;9.77;100.00;98747.31;2592302;28;20042;-88
2023/08/10 03:01:57;;;;;;;4.07;2.40;;;;;;;9.82;100.00;98740.25;2591935;28;20069;-89
2023/08/10 03:03:13;;;;;;;3.25;2.20;;;;;;;9.95;100.00;98741.75;2592108;28;20054;-88
2023/08/10 03:04:28;;;;;;;7.18;2.42;;;;;;;9.96;100.00;98743.44;2592145;28;20053;-88
2023/08/10 03:05:44;;;;;;;3.22;2.15;;;;;;;10.00;100.00;98745.09;2592181;28;20049;-88
2023/08/10 03:07:00;;;;;;;2.83;2.20;;;;;;;9.99;100.00;98746.00;2592196;28;20046;-88
2023/08/10 03:08:16;;;;;;;3.70;2.47;;;;;;;10.11;100.00;98746.66;2592154;28;20095;-88
2023/08/10 03:09:31;;;;;;;2.97;2.05;;;;;;;10.11;100.00;98744.03;2592040;28;20060;-89
2023/08/10 03:10:47;;;;;;;3.00;2.00;;;;;;;10.09;100.00;98751.91;2592126;28;20053;-88
2023/08/10 03:12:03;;;;;;;3.75;2.40;;;;;;;10.01;100.00;98757.28;2592167;28;20046;-88
2023/08/10 03:13:19;;;;;;;4.60;2.28;;;;;;;10.01;100.00;98754.69;2592076;28;20054;-88
2023/08/10 03:14:34;;;;;;;5.05;2.38;;;;;;;9.98;100.00;98754.75;2592088;28;20045;-89
2023/08/10 03:15:51;;;;;;;8.13;2.05;;;;;;;9.91;100.00;98747.91;2592086;28;20101;-89
2023/08/10 03:17:07;;;;;;;3.95;2.35;;;;;;;9.81;100.00;98757.69;2592050;28;20045;-88
2023/08/10 03:18:23;;;;;;;2.83;2.15;;;;;;;9.83;100.00;98752.44;2591869;28;20045;-88
2023/08/10 03:19:38;;;;;;;2.85;2.30;;;;;;;9.82;100.00;98755.94;2592042;28;20073;-88
2023/08/10 03:20:54;;;;;;;3.22;2.67;;;;;;;9.77;100.00;98752.53;2592040;28;20457;-88
2023/08/10 03:22:09;;;;;;;3.88;2.55;;;;;;;9.72;100.00;98750.91;2591977;28;20046;-88
2023/08/10 03:23:25;;;;;;;10.68;2.70;;;;;;;9.72;100.00;98752.66;2592021;28;20038;-88
2023/08/10 03:24:40;;;;;;;2.85;2.38;;;;;;;9.73;100.00;98757.84;2592028;28;20046;-88
2023/08/10 03:25:56;;;;;;;2.50;2.00;;;;;;;9.75;100.00;98763.06;2581119;28;20121;-88
2023/08/10 03:27:11;;;;;;;3.60;2.40;;;;;;;9.71;100.00;98761.41;2585479;28;20055;-88
2023/08/10 03:28:28;;;;;;;2.72;2.30;;;;;;;9.56;100.00;98760.78;2592140;28;20092;-88
2023/08/10 03:29:44;;;;;;;3.60;2.53;;;;;;;9.51;100.00;98764.38;2592176;28;20077;-88
2023/08/10 03:30:59;;;;;;;2.78;2.10;;;;;;;9.61;100.00;98779.00;2592084;28;20046;-88
2023/08/10 03:32:15;;;;;;;3.70;2.60;;;;;;;9.62;100.00;98770.25;2592156;28;20046;-88
2023/08/10 03:33:31;;;;;;;2.88;2.45;;;;;;;9.71;100.00;98775.31;2592236;28;20050;-89
2023/08/10 03:34:46;;;;;;;4.03;2.22;;;;;;;9.77;100.00;98774.34;2592043;28;20050;-89
2023/08/10 03:36:03;;;;;;;3.50;2.33;;;;;;;9.81;100.00;98780.38;2592184;28;20049;-88
2023/08/10 03:37:18;;;;;;;3.13;2.20;;;;;;;9.80;100.00;98782.13;2592168;28;20042;-88
2023/08/10 03:38:34;;;;;;;5.10;2.20;;;;;;;9.82;100.00;98784.72;2592047;28;20056;-88
2023/08/10 03:39:49;;;;;;;3.85;2.40;;;;;;;9.67;100.00;98784.13;2592141;28;20046;-88
2023/08/10 03:41:05;;;;;;;3.55;2.10;;;;;;;9.61;100.00;98782.47;2571303;28;20133;-89
2023/08/10 03:42:21;;;;;;;3.38;2.60;;;;;;;9.56;100.00;98783.44;2579622;28;20053;-88
2023/08/10 03:43:36;;;;;;;3.92;2.55;;;;;;;9.60;100.00;98782.50;2592072;28;20053;-89
2023/08/10 03:44:54;;;;;;;2.28;2.00;;;;;;;9.56;100.00;98784.28;2592247;28;20129;-89
2023/08/10 03:46:10;;;;;;;4.47;2.40;;;;;;;9.63;100.00;98785.03;2591983;28;20054;-90
2023/08/10 03:47:25;;;;;;;3.70;2.20;;;;;;;9.65;100.00;98785.91;2591900;28;20120;-88
2023/08/10 03:48:41;;;;;;;6.05;2.20;;;;;;;9.64;100.00;98794.63;2592292;28;20077;-89
2023/08/10 03:49:57;;;;;;;4.88;2.55;;;;;;;9.61;100.00;98792.94;2592210;28;20045;-89
2023/08/10 03:51:12;;;;;;;3.38;2.20;;;;;;;9.63;100.00;98792.88;2591865;28;20045;-89
2023/08/10 03:52:28;;;;;;;2.50;1.90;;;;;;;9.61;100.00;98794.66;2581527;28;20414;-88
2023/08/10 03:53:43;;;;;;;4.40;2.35;;;;;;;9.48;100.00;98791.44;2585301;28;20410;-89
2023/08/10 03:54:59;;;;;;;3.03;1.90;;;;;;;9.41;100.00;98798.53;2580931;28;20090;-89
2023/08/10 03:56:15;;;;;;;2.67;2.10;;;;;;;9.50;100.00;98797.50;2585212;28;20042;-88
2023/08/10 03:57:30;;;;;;;3.97;2.35;;;;;;;9.60;100.00;98798.19;2581039;28;20487;-89
2023/08/10 03:58:46;;;;;;;3.20;2.20;;;;;;;9.60;100.00;98792.94;2586040;28;20049;-88
2023/08/10 04:00:04;;;;;;;2.53;2.22;;;;;;;9.42;100.00;98800.25;2593692;28;20056;-89
2023/08/10 04:01:19;;;;;;;2.30;2.00;;;;;;;9.32;100.00;98798.66;2593873;28;20049;-89
2023/08/10 04:02:35;;;;;;;3.42;2.35;;;;;;;9.38;100.00;98803.81;2593928;28;20056;-88
2023/08/10 04:03:50;;;;;;;2.83;2.05;;;;;;;9.46;100.00;98804.50;2593910;28;20113;-89
2023/08/10 04:05:06;;;;;;;3.60;2.60;;;;;;;9.61;100.00;98802.50;2593320;28;20050;-88
2023/08/10 04:06:22;;;;;;;2.42;2.13;;;;;;;9.59;100.00;98797.34;2593630;28;20050;-89
2023/08/10 04:07:38;;;;;;;2.53;2.20;;;;;;;9.61;100.00;98798.16;2593808;28;20042;-88
2023/08/10 04:08:54;;;;;;;3.13;2.28;;;;;;;9.62;100.00;98799.00;2593889;28;20117;-89
2023/08/10 04:10:10;;;;;;;2.88;2.58;;;;;;;9.64;100.00;98799.00;2594096;28;20050;-89
2023/08/10 04:11:26;;;;;;;2.95;2.38;;;;;;;9.74;100.00;98797.94;2593722;28;20088;-88
2023/08/10 04:12:41;;;;;;;4.15;2.47;;;;;;;9.78;100.00;98802.22;2593757;28;20054;-89
2023/08/10 04:13:57;;;;;;;3.60;2.35;;;;;;;9.85;100.00;98797.72;2593802;28;20053;-89
2023/08/10 04:15:13;;;;;;;3.30;2.67;;;;;;;9.91;100.00;98799.38;2593818;28;20470;-88
2023/08/10 04:16:28;;;;;;;2.65;2.17;;;;;;;9.83;100.00;98802.13;2593901;28;20046;-89
2023/08/10 04:17:44;;;;;;;3.88;2.72;;;;;;;9.89;100.00;98799.38;2582942;28;20039;-89
2023/08/10 04:18:59;;;;;;;4.25;2.50;;;;;;;9.89;100.00;98800.25;2587207;28;20108;-89
2023/08/10 04:20:15;;;;;;;2.88;2.60;;;;;;;10.01;100.00;98803.53;2593768;28;20072;-88
2023/08/10 04:21:31;;;;;;;3.88;2.40;;;;;;;9.99;100.00;98800.94;2582949;28;20057;-89
2023/08/10 04:22:46;;;;;;;6.25;2.83;;;;;;;9.98;100.00;98801.81;2587094;28;20049;-89
2023/08/10 04:24:02;;;;;;;4.13;3.20;;;;;;;10.14;100.00;98802.41;2593584;28;20049;-88
2023/08/10 04:25:17;;;;;;;3.30;2.78;;;;;;;10.19;100.00;98810.13;2593644;28;20080;-88
2023/08/10 04:26:33;;;;;;;7.15;2.92;;;;;;;10.24;100.00;98810.03;2593546;28;20041;-88
2023/08/10 04:27:48;;;;;;;3.65;2.80;;;;;;;10.27;100.00;98802.97;2593465;28;20061;-88
2023/08/10 04:29:04;;;;;;;4.88;2.95;;;;;;;10.32;100.00;98802.91;2593571;28;20045;-88
2023/08/10 04:30:22;;;;;;;4.85;2.80;;;;;;;10.34;100.00;98803.72;2593726;28;20052;-89
2023/08/10 04:31:37;;;;;;;2.95;2.60;;;;;;;10.17;100.00;98801.44;2593622;28;20045;-88
2023/08/10 04:32:53;;;;;;;3.95;2.83;;;;;;;10.26;100.00;98803.88;2593706;28;20049;-88
2023/08/10 04:34:08;;;;;;;4.90;3.00;;;;;;;10.19;100.00;98804.88;2582954;28;20069;-88
2023/08/10 04:35:24;;;;;;;5.07;2.85;;;;;;;10.26;100.00;98806.50;2587192;28;20042;-88
2023/08/10 04:36:39;;;;;;;5.78;3.13;;;;;;;10.28;100.00;98806.47;2593702;28;20049;-88
2023/08/10 04:37:56;;;;;;;8.15;3.05;;;;;;;10.30;100.00;98802.06;2593784;28;20490;-88
2023/08/10 04:39:12;;;;;;;6.00;3.05;;;;;;;10.28;100.00;98807.31;2593461;28;20049;-88
2023/08/10 04:40:29;;;;;;;7.05;2.80;;;;;;;10.37;100.00;98808.88;2593522;28;20053;-88
2023/08/10 04:41:45;;;;;;;6.40;3.13;;;;;;;10.34;100.00;98810.69;2593581;28;20084;-88
2023/08/10 04:43:01;;;;;;;4.93;3.00;;;;;;;10.19;100.00;98804.88;2593396;28;20069;-88
2023/08/10 04:44:18;;;;;;;3.53;2.97;;;;;;;10.13;100.00;98812.88;2593514;28;20042;-88
2023/08/10 04:45:34;;;;;;;4.72;2.67;;;;;;;10.19;100.00;98804.88;2593611;28;20050;-88
2023/08/10 04:46:49;;;;;;;5.75;3.22;;;;;;;10.37;100.00;98811.50;2593588;28;20046;-88
2023/08/10 04:48:07;;;;;;;3.80;2.53;;;;;;;10.29;100.00;98806.44;2593262;28;20038;-88
2023/08/10 04:49:23;;;;;;;9.32;3.15;;;;;;;10.36;100.00;98814.16;2593470;28;20050;-88
2023/08/10 04:50:39;;;;;;;3.30;2.70;;;;;;;10.49;100.00;98805.19;2593485;28;20056;-88
2023/08/10 04:51:56;;;;;;;4.35;2.80;;;;;;;10.52;100.00;98805.13;2593502;28;20441;-89
2023/08/10 04:53:11;;;;;;;4.25;2.80;;;;;;;10.46;100.00;98807.84;2593432;28;20045;-88
2023/08/10 04:54:27;;;;;;;3.90;3.17;;;;;;;10.49;100.00;98807.81;2593516;28;20050;-88
2023/08/10 04:55:43;;;;;;;3.63;2.80;;;;;;;10.37;100.00;98815.88;2593282;28;20064;-88
2023/08/10 04:56:58;;;;;;;3.35;3.05;;;;;;;10.37;100.00;98808.88;2593507;28;20074;-87
2023/08/10 04:58:14;;;;;;;4.43;2.78;;;;;;;10.37;100.00;98813.28;2593489;28;20045;-88
2023/08/10 04:59:30;;;;;;;4.50;2.80;;;;;;;10.27;100.00;98810.84;2593318;28;20057;-88
2023/08/10 05:00:45;;;;;;;3.17;2.58;;;;;;;10.34;100.00;98813.31;2582590;28;20047;-88
2023/08/10 05:02:01;;;;;;;5.03;3.05;;;;;;;10.26;100.00;98811.72;2586293;28;20054;-88
2023/08/10 05:03:16;;;;;;;3.38;2.53;;;;;;;10.17;100.00;98810.16;2592674;28;20529;-88
2023/08/10 05:04:32;;;;;;;4.85;2.90;;;;;;;10.28;100.00;98811.72;2592570;28;20453;-88
2023/08/10 05:05:49;;;;;;;5.38;2.63;;;;;;;10.32;100.00;98808.97;2592638;28;20046;-88
2023/08/10 05:07:05;;;;;;;3.97;2.80;;;;;;;10.26;100.00;98809.13;2592580;28;20053;-87
2023/08/10 05:08:22;;;;;;;5.55;2.88;;;;;;;10.30;100.00;98812.53;2592617;28;20560;-87
2023/08/10 05:09:37;;;;;;;3.33;2.75;;;;;;;10.35;100.00;98817.69;2592219;28;20409;-88
2023/08/10 05:10:53;;;;;;;4.28;2.85;;;;;;;10.35;100.00;98813.28;2581792;28;20054;-88
2023/08/10 05:12:09;;;;;;;3.28;2.28;;;;;;;10.32;100.00;98815.97;2586235;28;20070;-87
2023/08/10 05:13:25;;;;;;;4.35;2.70;;;;;;;10.41;100.00;98822.81;2592700;28;20058;-87
2023/08/10 05:14:40;;;;;;;4.50;2.63;;;;;;;10.41;100.00;98822.81;2581730;28;20046;-87
2023/08/10 05:15:56;;;;;;;4.25;2.80;;;;;;;10.55;100.00;98823.38;2585932;28;20038;-86
2023/08/10 05:17:12;;;;;;;3.38;2.33;;;;;;;10.59;100.00;98821.56;2592699;28;20042;-87
2023/08/10 05:18:27;;;;;;;3.00;2.40;;;;;;;10.65;100.00;98820.56;2592625;28;20056;-87
2023/08/10 05:19:43;;;;;;;3.38;2.28;;;;;;;10.62;100.00;98824.09;2593443;28;20092;-88
2023/08/10 05:21:00;;;;;;;5.82;2.53;;;;;;;10.84;100.00;98824.47;2602718;28;20429;-88
2023/08/10 05:22:16;;;;;;;3.55;2.80;;;;;;;10.69;100.00;98830.94;2602754;28;20092;-87
2023/08/10 05:23:31;;;;;;;3.60;2.83;;;;;;;10.73;100.00;98824.72;2591684;28;20050;-87
2023/08/10 05:24:47;;;;;;;4.18;2.55;;;;;;;10.73;100.00;98829.09;2596062;28;20049;-87
2023/08/10 05:26:02;;;;;;;4.35;2.47;;;;;;;10.67;100.00;98826.63;2602637;28;20077;-87
2023/08/10 05:27:18;;;;;;;3.95;2.67;;;;;;;10.58;100.00;98825.06;2602632;28;20493;-87
2023/08/10 05:28:34;;;;;;;3.58;2.80;;;;;;;10.74;100.00;98829.06;2602554;28;20405;-86
2023/08/10 05:29:49;;;;;;;4.97;2.78;;;;;;;10.62;100.00;98826.72;2602568;28;20556;-87
2023/08/10 05:31:05;;;;;;;5.68;2.90;;;;;;;10.86;100.00;98833.16;2602587;28;20485;-87
2023/08/10 05:32:20;;;;;;;3.03;2.45;;;;;;;10.88;100.00;98822.66;2602575;28;20561;-85
2023/08/10 05:33:36;;;;;;;3.70;2.50;;;;;;;10.93;100.00;98826.00;2602725;28;20045;-87
2023/08/10 05:34:51;;;;;;;5.75;2.60;;;;;;;10.91;100.00;98827.81;2602740;28;20116;-85
2023/08/10 05:36:07;;;;;;;3.15;2.83;;;;;;;10.86;100.00;98830.53;2602480;28;20056;-87
2023/08/10 05:37:23;;;;;;;3.30;2.45;;;;;;;10.97;100.00;98826.81;2602569;28;20049;-87
2023/08/10 05:38:39;;;;;;;5.30;2.83;;;;;;;11.12;100.00;98826.44;2591744;28;20101;-85
2023/08/10 05:39:54;;;;;;;3.00;2.42;;;;;;;11.10;100.00;98820.38;2591614;28;20128;-85
2023/08/10 05:41:10;;;;;;;5.43;2.40;;;;;;;11.07;100.00;98827.44;2595986;28;20049;-85
2023/08/10 05:42:26;;;;;;;3.20;2.50;;;;;;;11.09;100.00;98830.88;2602632;28;20038;-85
2023/08/10 05:43:41;;;;;;;3.83;2.85;;;;;;;11.22;100.00;98824.44;2602657;28;20045;-85
2023/08/10 05:44:57;;;;;;;4.22;2.50;;;;;;;11.28;100.00;98828.69;2602501;28;20041;-85
2023/08/10 05:46:13;;;;;;;4.15;2.70;;;;;;;11.22;100.00;98828.84;2602394;28;20045;-85
2023/08/10 05:47:28;;;;;;;3.20;2.42;;;;;;;11.36;100.00;98829.38;2602348;28;20045;-85
2023/08/10 05:48:44;;;;;;;6.45;2.85;;;;;;;11.29;100.00;98825.16;2602344;28;20493;-85
2023/08/10 05:49:59;;;;;;;4.22;2.60;;;;;;;11.34;100.00;98838.16;2591556;28;20052;-85
2023/08/10 05:51:15;;;;;;;4.43;2.70;;;;;;;11.43;100.00;98833.53;2595852;28;20049;-86
2023/08/10 05:52:30;;;;;;;3.00;2.30;;;;;;;11.58;100.00;98834.94;2591518;28;20469;-85
2023/08/10 05:53:46;;;;;;;3.35;2.70;;;;;;;11.49;100.00;98836.94;2595797;28;20505;-85
2023/08/10 05:55:02;;;;;;;2.88;2.35;;;;;;;11.63;100.00;98837.44;2602474;28;20081;-86
2023/08/10 05:56:17;;;;;;;3.08;2.60;;;;;;;11.68;100.00;98838.16;2602414;28;20049;-86
2023/08/10 05:57:33;;;;;;;4.20;2.67;;;;;;;11.81;100.00;98833.47;2602410;28;20093;-85
2023/08/10 05:58:48;;;;;;;5.63;2.70;;;;;;;11.84;100.00;98832.50;2602424;28;20060;-87
2023/08/10 06:00:05;;;;;;;3.75;2.70;;;;;;;11.90;100.00;98837.63;2602431;28;20055;-85